Time;durP1;ratioP1;P1;durP2;ratioP2;P2;SDS_P1;SDS_P2;PMS_P1;PMS_P2;Temp;Humidity;BMP_temperature;BMP_pressure;BME280_temperature;BME280_humidity;BME280_pressure;Samples;Min_cycle;Max_cycle;Signal;HPM_P1;HPM_P2
2022/06/07 00:00:20;;;;;;;5.90;5.30;;;14.60;85.00;;;;;;5048208;28;20478;-68
2022/06/07 00:02:46;;;;;;;6.85;5.40;;;14.60;85.00;;;;;;5046794;28;20024;-69
2022/06/07 00:05:13;;;;;;;6.32;5.45;;;14.60;84.90;;;;;;5049860;28;20442;-69
2022/06/07 00:07:40;;;;;;;5.82;4.90;;;14.60;84.90;;;;;;5048527;28;20066;-70
2022/06/07 00:10:07;;;;;;;6.07;5.43;;;14.70;84.90;;;;;;5048640;28;20632;-69
2022/06/07 00:12:33;;;;;;;6.03;5.22;;;14.70;84.90;;;;;;5050709;28;20077;-70
2022/06/07 00:15:05;;;;;;;9.70;7.50;;;14.70;84.90;;;;;;5046868;28;20368;-70
2022/06/07 00:17:34;;;;;;;;;;;14.70;85.00;;;;;;5049176;28;20383;-70
2022/06/07 00:20:05;;;;;;;7.53;6.30;;;14.60;85.00;;;;;;5041994;28;20282;-70
2022/06/07 00:22:37;;;;;;;10.98;9.20;;;14.60;85.10;;;;;;5053534;28;20597;-70
2022/06/07 00:25:09;;;;;;;7.95;6.93;;;14.60;85.20;;;;;;5047292;28;20021;-69
2022/06/07 00:27:41;;;;;;;6.78;6.07;;;14.70;85.20;;;;;;5050216;28;20433;-70
2022/06/07 00:30:16;;;;;;;15.40;13.02;;;14.70;85.10;;;;;;5051062;28;20166;-69
2022/06/07 00:32:46;;;;;;;9.00;7.68;;;14.70;85.40;;;;;;5048949;28;20036;-69
2022/06/07 00:35:12;;;;;;;8.73;7.55;;;14.70;85.50;;;;;;5047007;28;20040;-69
2022/06/07 00:37:41;;;;;;;8.93;7.45;;;14.70;85.40;;;;;;5052851;28;20033;-70
2022/06/07 00:40:14;;;;;;;9.50;7.57;;;14.70;85.40;;;;;;5041903;28;20029;-69
2022/06/07 00:42:41;;;;;;;9.50;8.35;;;14.70;85.30;;;;;;5051099;28;20100;-69
2022/06/07 00:45:18;;;;;;;10.05;8.05;;;14.80;85.40;;;;;;5054895;28;20117;-69
2022/06/07 00:47:52;;;;;;;12.27;9.63;;;14.80;85.30;;;;;;5053437;28;20387;-70
2022/06/07 00:50:44;;;;;;;11.90;10.27;;;14.90;85.30;;;;;;5055132;28;20564;-69
2022/06/07 00:53:26;;;;;;;11.95;9.70;;;14.80;85.30;;;;;;5046878;28;20025;-70
2022/06/07 00:55:55;;;;;;;13.73;10.38;;;14.80;85.30;;;;;;5053135;28;20647;-70
2022/06/07 00:58:26;;;;;;;12.05;9.07;;;14.80;85.40;;;;;;5053467;28;20053;-70
2022/06/07 01:00:53;;;;;;;16.25;12.93;;;14.80;85.40;;;;;;5053324;28;20098;-70
2022/06/07 01:03:26;;;;;;;12.15;10.77;;;14.80;85.60;;;;;;5053208;28;20049;-70
2022/06/07 01:05:53;;;;;;;11.80;10.10;;;14.80;85.60;;;;;;5052160;28;20052;-71
2022/06/07 01:11:12;;;;;;;11.85;9.30;;;14.90;85.60;;;;;;5047368;28;20035;-71
2022/06/07 01:13:41;;;;;;;12.35;10.25;;;14.90;85.60;;;;;;5052744;28;20033;-69
2022/06/07 01:16:12;;;;;;;10.38;9.18;;;14.90;85.60;;;;;;5065601;28;20028;-68
2022/06/07 01:18:38;;;;;;;15.53;11.70;;;15.00;85.50;;;;;;5072500;28;20023;-68
2022/06/07 01:21:33;;;;;;;15.90;13.05;;;15.00;85.60;;;;;;5059275;28;20033;-69
2022/06/07 01:24:03;;;;;;;16.42;12.35;;;14.90;85.70;;;;;;5045006;28;20035;-70
2022/06/07 01:26:35;;;;;;;18.65;14.50;;;14.90;85.70;;;;;;5054979;28;20108;-72
2022/06/07 01:29:04;;;;;;;16.55;13.20;;;14.90;85.80;;;;;;5053508;28;20017;-71
2022/06/07 01:31:33;;;;;;;14.20;11.95;;;14.90;85.90;;;;;;5050774;28;20040;-71
2022/06/07 01:34:10;;;;;;;14.07;11.00;;;14.90;85.90;;;;;;5051627;28;20056;-71
2022/06/07 01:36:36;;;;;;;11.95;9.63;;;14.90;85.90;;;;;;5059347;28;20037;-69
2022/06/07 01:41:56;;;;;;;20.80;14.10;;;14.90;85.90;;;;;;5052054;28;20087;-69
2022/06/07 01:44:29;;;;;;;15.80;12.10;;;14.90;86.00;;;;;;5060607;28;20029;-68
2022/06/07 01:46:57;;;;;;;17.40;13.15;;;14.90;86.10;;;;;;5050660;28;20053;-69
2022/06/07 01:49:27;;;;;;;12.75;11.10;;;14.90;86.10;;;;;;5051835;28;20067;-69
2022/06/07 01:51:54;;;;;;;13.85;10.30;;;14.90;86.20;;;;;;5050867;28;20490;-69
2022/06/07 01:54:30;;;;;;;16.70;11.80;;;14.90;86.30;;;;;;5055440;28;20029;-69
2022/06/07 01:57:02;;;;;;;12.95;9.27;;;15.00;86.20;;;;;;5055849;28;20060;-69
2022/06/07 01:59:30;;;;;;;16.73;12.40;;;14.90;86.10;;;;;;5051744;28;20029;-70
2022/06/07 02:02:00;;;;;;;17.92;14.00;;;14.90;86.10;;;;;;5051575;28;20055;-69
2022/06/07 02:04:29;;;;;;;16.60;12.77;;;14.90;86.30;;;;;;5050554;28;20029;-69
2022/06/07 02:06:55;;;;;;;16.00;12.73;;;14.90;86.30;;;;;;5051490;28;20094;-69
2022/06/07 02:09:24;;;;;;;16.02;13.27;;;14.90;86.30;;;;;;5051833;28;20565;-69
2022/06/07 02:11:53;;;;;;;17.02;13.85;;;15.00;86.30;;;;;;5063970;28;20028;-69
2022/06/07 02:14:19;;;;;;;18.10;14.27;;;15.00;86.40;;;;;;5058152;28;20045;-70
2022/06/07 02:16:48;;;;;;;19.45;14.90;;;15.00;86.50;;;;;;5051492;28;20502;-69
2022/06/07 02:19:17;;;;;;;18.23;13.68;;;15.00;86.50;;;;;;5050085;28;20520;-68
2022/06/07 02:21:46;;;;;;;18.10;14.32;;;15.00;86.60;;;;;;5060192;28;20025;-68
2022/06/07 02:24:17;;;;;;;19.10;14.88;;;15.00;86.50;;;;;;5037282;28;20086;-68
2022/06/07 02:26:55;;;;;;;15.57;12.52;;;15.00;86.50;;;;;;5051303;28;20529;-67
2022/06/07 02:29:56;;;;;;;17.35;12.15;;;15.00;86.50;;;;;;5058231;28;20044;-68
2022/06/07 02:32:37;;;;;;;17.40;13.60;;;15.00;86.50;;;;;;5031452;28;20110;-68
2022/06/07 02:35:04;;;;;;;13.85;10.90;;;15.00;86.40;;;;;;5050153;28;20021;-67
2022/06/07 02:37:32;;;;;;;14.10;11.43;;;15.00;87.00;;;;;;5050922;28;20032;-69
2022/06/07 02:40:01;;;;;;;15.75;13.45;;;15.00;86.40;;;;;;5051228;28;20021;-70
2022/06/07 02:42:31;;;;;;;14.63;11.52;;;15.00;86.30;;;;;;5056784;28;20025;-68
2022/06/07 02:44:57;;;;;;;16.67;13.40;;;15.00;86.20;;;;;;5059566;28;20427;-68
2022/06/07 02:47:30;;;;;;;14.98;12.40;;;15.10;86.20;;;;;;5052101;28;20108;-71
2022/06/07 02:49:57;;;;;;;15.43;12.75;;;15.10;86.20;;;;;;5049629;28;20032;-70
2022/06/07 02:52:23;;;;;;;17.80;14.15;;;15.10;86.20;;;;;;5056064;28;20028;-71
2022/06/07 02:54:49;;;;;;;17.73;14.35;;;15.00;86.20;;;;;;5057575;28;20040;-71
2022/06/07 02:57:21;;;;;;;16.60;12.85;;;15.00;86.20;;;;;;5050851;28;20033;-70
2022/06/07 02:59:53;;;;;;;11.90;10.30;;;15.00;86.20;;;;;;5050013;28;20033;-70
2022/06/07 03:02:19;;;;;;;14.57;12.00;;;15.00;86.20;;;;;;5057029;28;20017;-70
2022/06/07 03:04:46;;;;;;;16.92;12.52;;;15.00;86.40;;;;;;5051506;28;20080;-70
2022/06/07 03:07:15;;;;;;;16.90;13.38;;;15.00;86.30;;;;;;5049975;28;20494;-70
2022/06/07 03:09:41;;;;;;;15.82;12.60;;;15.00;86.30;;;;;;5050576;28;20021;-70
2022/06/07 03:12:08;;;;;;;16.30;13.10;;;15.00;86.20;;;;;;5050730;28;20021;-70
2022/06/07 03:14:33;;;;;;;17.92;13.20;;;15.00;86.20;;;;;;5050976;28;20025;-70
2022/06/07 03:16:59;;;;;;;16.83;12.52;;;15.00;86.20;;;;;;5048908;28;20467;-70
2022/06/07 03:19:28;;;;;;;21.15;15.90;;;15.10;86.20;;;;;;5050549;28;20019;-70
2022/06/07 03:21:53;;;;;;;18.42;15.07;;;15.10;86.10;;;;;;5050281;28;20031;-70
2022/06/07 03:24:19;;;;;;;13.38;11.10;;;15.00;86.00;;;;;;5050498;28;20013;-69
2022/06/07 03:26:44;;;;;;;17.45;13.35;;;15.10;86.10;;;;;;5050932;28;20028;-69
2022/06/07 03:29:10;;;;;;;21.77;16.63;;;15.00;86.00;;;;;;5050927;28;20033;-70
2022/06/07 03:31:36;;;;;;;17.63;14.57;;;15.00;86.00;;;;;;5049612;28;20033;-70
2022/06/07 03:34:01;;;;;;;19.92;15.65;;;15.00;86.20;;;;;;5050295;28;20071;-70
2022/06/07 03:36:29;;;;;;;14.38;12.43;;;15.00;86.20;;;;;;5049728;28;20032;-69
2022/06/07 03:38:57;;;;;;;20.08;16.63;;;15.00;86.20;;;;;;5052359;28;20629;-70
2022/06/07 03:41:26;;;;;;;21.17;15.88;;;15.00;86.20;;;;;;5051727;28;20090;-70
2022/06/07 03:43:52;;;;;;;15.30;13.05;;;14.90;86.10;;;;;;5050316;28;20091;-69
2022/06/07 03:46:23;;;;;;;18.50;12.65;;;14.90;86.40;;;;;;5049500;28;20386;-70
2022/06/07 03:48:50;;;;;;;18.60;14.67;;;14.90;86.10;;;;;;5047830;28;20028;-69
2022/06/07 03:51:18;;;;;;;18.23;15.13;;;14.90;86.20;;;;;;5050354;28;20056;-68
2022/06/07 03:53:45;;;;;;;15.88;13.65;;;15.00;86.20;;;;;;5050647;28;20029;-67
2022/06/07 03:56:11;;;;;;;17.40;14.07;;;14.90;86.20;;;;;;5050210;28;20029;-67
2022/06/07 03:58:38;;;;;;;20.08;17.85;;;14.90;86.10;;;;;;5049013;28;20456;-68
2022/06/07 04:01:06;;;;;;;19.67;16.63;;;14.90;86.40;;;;;;5048617;28;20025;-68
2022/06/07 04:03:31;;;;;;;19.10;15.05;;;14.80;86.50;;;;;;5049713;28;20025;-68
2022/06/07 04:05:58;;;;;;;12.50;11.18;;;14.90;86.60;;;;;;5040010;28;20455;-69
2022/06/07 04:08:25;;;;;;;15.85;13.65;;;14.90;86.50;;;;;;5050398;28;20051;-68
2022/06/07 04:10:55;;;;;;;17.27;14.02;;;14.90;86.60;;;;;;5049051;28;20025;-69
2022/06/07 04:13:24;;;;;;;19.42;14.50;;;14.90;86.60;;;;;;5049165;28;20111;-69
2022/06/07 04:15:49;;;;;;;16.05;12.43;;;14.80;86.60;;;;;;5059324;28;20386;-70
2022/06/07 04:18:15;;;;;;;14.77;12.50;;;14.90;86.70;;;;;;5048500;28;20028;-71
2022/06/07 04:20:41;;;;;;;15.60;12.07;;;14.90;86.50;;;;;;5051752;28;20024;-70
2022/06/07 04:23:07;;;;;;;12.07;9.63;;;14.90;86.50;;;;;;5048011;28;20094;-70
2022/06/07 04:25:35;;;;;;;13.48;10.27;;;14.90;86.50;;;;;;5048095;28;20028;-69
2022/06/07 04:28:01;;;;;;;14.73;11.93;;;14.90;86.40;;;;;;5048274;28;20029;-69
2022/06/07 04:30:26;;;;;;;16.75;13.68;;;15.00;86.30;;;;;;5049702;28;20096;-69
2022/06/07 04:32:52;;;;;;;17.92;14.40;;;15.00;86.30;;;;;;5048392;28;20125;-70
2022/06/07 04:35:18;;;;;;;16.98;14.15;;;15.00;86.30;;;;;;5052437;28;20017;-70
2022/06/07 04:37:48;;;;;;;17.17;13.93;;;15.00;86.20;;;;;;5049401;28;20048;-70
2022/06/07 04:40:14;;;;;;;18.10;14.13;;;15.00;86.20;;;;;;5049348;28;20029;-70
2022/06/07 04:42:41;;;;;;;12.70;10.90;;;15.00;86.20;;;;;;5049340;28;20052;-71
2022/06/07 04:45:14;;;;;;;13.93;10.45;;;15.00;86.20;;;;;;5049030;28;20075;-71
2022/06/07 04:47:41;;;;;;;15.13;11.60;;;15.00;86.20;;;;;;5049731;28;20029;-70
2022/06/07 04:50:09;;;;;;;17.58;13.98;;;15.10;86.20;;;;;;5049329;28;20650;-70
2022/06/07 04:52:35;;;;;;;12.80;11.20;;;15.10;86.10;;;;;;5048923;28;20409;-70
2022/06/07 04:55:01;;;;;;;12.82;11.48;;;15.20;86.10;;;;;;5049610;28;20097;-71
2022/06/07 04:57:28;;;;;;;14.98;11.93;;;15.20;86.00;;;;;;5048636;28;20025;-71
2022/06/07 04:59:54;;;;;;;14.45;12.75;;;15.30;85.90;;;;;;5048361;28;20517;-71
2022/06/07 05:02:20;;;;;;;18.65;14.75;;;15.30;85.80;;;;;;5053915;28;20021;-71
2022/06/07 05:04:45;;;;;;;14.57;11.73;;;15.40;85.70;;;;;;5051160;28;20398;-69
2022/06/07 05:07:11;;;;;;;14.40;12.30;;;15.40;85.70;;;;;;5048819;28;20025;-70
2022/06/07 05:09:37;;;;;;;17.65;13.55;;;15.40;85.60;;;;;;5046309;28;20484;-69
2022/06/07 05:12:03;;;;;;;16.42;13.50;;;15.40;85.60;;;;;;5049068;28;20025;-70
2022/06/07 05:14:29;;;;;;;17.63;13.32;;;15.30;85.50;;;;;;5048290;28;20017;-69
2022/06/07 05:16:54;;;;;;;14.07;12.57;;;15.30;85.60;;;;;;5048977;28;20025;-70
2022/06/07 05:19:20;;;;;;;16.25;13.68;;;15.30;85.60;;;;;;5047871;28;20036;-70
2022/06/07 05:21:46;;;;;;;16.75;14.40;;;15.30;85.50;;;;;;5048420;28;20033;-67
2022/06/07 05:24:12;;;;;;;16.13;13.75;;;15.30;85.50;;;;;;5057564;28;20382;-68
2022/06/07 05:26:57;;;;;;;17.38;13.90;;;15.30;85.60;;;;;;5054337;28;20656;-69
2022/06/07 05:29:27;;;;;;;15.63;12.25;;;15.30;85.60;;;;;;5053216;28;20028;-69
2022/06/07 05:31:53;;;;;;;18.27;14.27;;;15.30;85.50;;;;;;5050653;28;20378;-70
2022/06/07 05:34:19;;;;;;;17.45;13.27;;;15.30;85.60;;;;;;5054625;28;20036;-71
2022/06/07 05:36:45;;;;;;;17.67;13.27;;;15.30;85.60;;;;;;5059413;28;20398;-69
2022/06/07 05:39:23;;;;;;;16.95;15.15;;;15.20;86.10;;;;;;5050326;28;20025;-70
2022/06/07 05:41:50;;;;;;;14.32;12.70;;;15.20;85.60;;;;;;5051524;28;20025;-68
2022/06/07 05:44:16;;;;;;;16.50;14.27;;;15.20;85.60;;;;;;5052582;28;20703;-68
2022/06/07 05:46:42;;;;;;;18.05;14.55;;;15.20;85.70;;;;;;5051514;28;20474;-68
2022/06/07 05:49:09;;;;;;;20.35;15.73;;;15.20;85.60;;;;;;5053009;28;20386;-70
2022/06/07 05:51:35;;;;;;;16.83;15.07;;;15.20;85.60;;;;;;5052282;28;20055;-68
2022/06/07 05:54:01;;;;;;;17.00;14.15;;;15.30;85.60;;;;;;5051877;28;20642;-69
2022/06/07 05:56:26;;;;;;;17.20;14.13;;;15.30;85.50;;;;;;5061504;28;20052;-68
2022/06/07 05:58:52;;;;;;;17.65;14.38;;;15.30;85.50;;;;;;5055605;28;20059;-72
2022/06/07 06:01:18;;;;;;;17.48;14.82;;;15.30;85.50;;;;;;5050200;28;20021;-69
2022/06/07 06:03:44;;;;;;;17.48;14.68;;;15.30;85.30;;;;;;5052225;28;20087;-69
2022/06/07 06:06:12;;;;;;;16.70;14.10;;;15.30;85.30;;;;;;5051925;28;20021;-68
2022/06/07 06:11:24;;;;;;;14.93;11.02;;;15.40;85.40;;;;;;5048875;28;20457;-71
2022/06/07 06:13:50;;;;;;;14.98;12.50;;;15.40;85.20;;;;;;5050843;28;20037;-70
2022/06/07 06:16:18;;;;;;;13.90;11.20;;;15.40;85.20;;;;;;5051993;28;20112;-70
2022/06/07 06:18:49;;;;;;;13.70;9.85;;;15.50;85.30;;;;;;5067593;28;20052;-69
2022/06/07 06:21:16;;;;;;;16.25;13.95;;;15.50;85.10;;;;;;5051865;28;20029;-70
2022/06/07 06:23:43;;;;;;;17.63;15.05;;;15.60;84.90;;;;;;5051687;28;20024;-69
2022/06/07 06:26:10;;;;;;;17.60;14.35;;;15.70;84.80;;;;;;5055288;28;20103;-71
2022/06/07 06:28:37;;;;;;;13.07;11.07;;;15.70;84.60;;;;;;5051558;28;20099;-70
2022/06/07 06:31:05;;;;;;;15.25;13.45;;;15.80;84.40;;;;;;5055500;28;20104;-71
2022/06/07 06:33:35;;;;;;;16.13;13.43;;;15.80;84.30;;;;;;5053781;28;20033;-69
2022/06/07 06:36:00;;;;;;;17.45;13.52;;;15.80;84.30;;;;;;5049992;28;20505;-69
2022/06/07 06:38:26;;;;;;;15.55;12.38;;;15.80;84.20;;;;;;5050572;28;20103;-69
2022/06/07 06:40:51;;;;;;;16.60;14.25;;;15.80;84.20;;;;;;5050539;28;20056;-70
2022/06/07 06:43:17;;;;;;;19.98;14.63;;;16.00;84.10;;;;;;5055662;28;20027;-69
2022/06/07 06:45:44;;;;;;;15.13;13.15;;;16.10;83.90;;;;;;5055944;28;20413;-69
2022/06/07 06:48:11;;;;;;;18.27;14.88;;;16.20;83.60;;;;;;5051731;28;20074;-69
2022/06/07 06:50:37;;;;;;;16.13;12.43;;;16.10;83.20;;;;;;5049922;28;20499;-69
2022/06/07 06:53:03;;;;;;;14.10;11.90;;;16.10;83.30;;;;;;5049185;28;20085;-70
2022/06/07 06:55:29;;;;;;;13.65;11.85;;;16.10;83.30;;;;;;5050693;28;20025;-70
2022/06/07 06:57:55;;;;;;;14.80;12.10;;;16.10;83.30;;;;;;5057673;28;20052;-69
2022/06/07 07:00:21;;;;;;;13.75;11.75;;;16.10;83.30;;;;;;5050568;28;20126;-69
2022/06/07 07:02:47;;;;;;;18.60;14.93;;;16.20;83.30;;;;;;5047437;28;20605;-70
2022/06/07 07:05:15;;;;;;;14.38;12.45;;;16.20;83.00;;;;;;5050187;28;20391;-70
2022/06/07 07:07:41;;;;;;;15.60;13.02;;;16.10;83.00;;;;;;5046880;28;20016;-70
2022/06/07 07:10:08;;;;;;;17.83;13.73;;;16.10;82.90;;;;;;5063485;28;20124;-70
2022/06/07 07:12:34;;;;;;;14.77;12.55;;;16.10;82.90;;;;;;5047808;28;20108;-70
2022/06/07 07:15:04;;;;;;;17.85;13.57;;;16.20;83.00;;;;;;5045806;28;20041;-70
2022/06/07 07:17:30;;;;;;;10.73;9.48;;;16.20;82.80;;;;;;5047323;28;20155;-69
2022/06/07 07:19:59;;;;;;;12.02;10.05;;;16.20;82.80;;;;;;5046002;28;20040;-70
2022/06/07 07:22:25;;;;;;;15.60;12.75;;;16.20;82.70;;;;;;5048402;28;20151;-69
2022/06/07 07:24:51;;;;;;;18.92;14.00;;;16.20;82.60;;;;;;5048676;28;20120;-68
2022/06/07 07:27:18;;;;;;;13.80;11.90;;;16.10;82.70;;;;;;5049471;28;20009;-69
2022/06/07 07:29:43;;;;;;;11.70;10.45;;;16.10;82.80;;;;;;5047714;28;20087;-69
2022/06/07 07:32:09;;;;;;;13.00;11.60;;;16.20;82.80;;;;;;5046985;28;20026;-69
2022/06/07 07:34:35;;;;;;;15.07;12.50;;;16.20;82.70;;;;;;5049459;28;20577;-71
2022/06/07 07:37:00;;;;;;;15.32;13.27;;;16.30;82.60;;;;;;5047399;28;20398;-69
2022/06/07 07:39:26;;;;;;;13.43;11.50;;;16.40;82.50;;;;;;5049038;28;20025;-70
2022/06/07 07:41:54;;;;;;;12.95;11.43;;;16.70;82.10;;;;;;5046620;28;20029;-69
2022/06/07 07:44:22;;;;;;;15.63;12.18;;;16.70;81.50;;;;;;5046166;28;20025;-69
2022/06/07 07:46:48;;;;;;;17.70;15.18;;;16.80;81.30;;;;;;5047754;28;20021;-68
2022/06/07 07:49:16;;;;;;;12.88;11.52;;;16.70;81.30;;;;;;5046281;28;20144;-68
2022/06/07 07:51:44;;;;;;;16.35;13.57;;;16.70;81.40;;;;;;5046921;28;20056;-70
2022/06/07 07:54:14;;;;;;;15.20;12.32;;;16.70;81.50;;;;;;5047129;28;20037;-68
2022/06/07 07:56:41;;;;;;;14.50;13.00;;;16.70;81.30;;;;;;5047257;28;20090;-69
2022/06/07 07:59:08;;;;;;;13.13;11.10;;;16.70;81.20;;;;;;5041739;28;20114;-69
2022/06/07 08:01:36;;;;;;;14.45;11.98;;;16.80;81.00;;;;;;5042377;28;20036;-69
2022/06/07 08:04:03;;;;;;;14.10;11.32;;;16.80;80.50;;;;;;5047778;28;20103;-70
2022/06/07 08:06:30;;;;;;;10.85;9.25;;;16.90;80.30;;;;;;5049003;28;20028;-71
2022/06/07 08:08:59;;;;;;;10.18;9.18;;;17.00;80.10;;;;;;5049405;28;20013;-71
2022/06/07 08:11:28;;;;;;;12.50;10.63;;;17.00;80.10;;;;;;5048197;28;20033;-70
2022/06/07 08:13:54;;;;;;;11.98;10.00;;;17.10;79.90;;;;;;5052263;28;20028;-68
2022/06/07 08:16:20;;;;;;;17.95;15.38;;;17.10;79.70;;;;;;5048879;28;20036;-68
2022/06/07 08:18:47;;;;;;;13.73;12.32;;;17.10;79.30;;;;;;5046833;28;20036;-69
2022/06/07 08:21:20;;;;;;;12.52;11.10;;;17.00;79.00;;;;;;5050578;28;20112;-71
2022/06/07 08:23:47;;;;;;;11.30;10.10;;;17.00;79.20;;;;;;5044937;28;20688;-69
2022/06/07 08:26:16;;;;;;;10.93;9.63;;;17.00;79.30;;;;;;5043148;28;20108;-69
2022/06/07 08:28:42;;;;;;;13.40;11.60;;;17.10;79.20;;;;;;5045656;28;20056;-69
2022/06/07 08:31:12;;;;;;;10.65;8.88;;;17.20;78.90;;;;;;5042766;28;20036;-70
2022/06/07 08:39:08;;;;;;;11.73;10.18;;;17.40;78.30;;;;;;5046574;28;20481;-69
2022/06/07 08:41:37;;;;;;;13.00;9.65;;;17.50;77.40;;;;;;5044163;28;20032;-69
2022/06/07 08:44:11;;;;;;;10.27;9.18;;;17.60;77.10;;;;;;5045957;28;20111;-68
2022/06/07 08:46:37;;;;;;;10.57;8.27;;;17.50;76.90;;;;;;5044571;28;20052;-68
2022/06/07 08:49:04;;;;;;;9.73;7.20;;;17.50;77.70;;;;;;5046040;28;20059;-70
2022/06/07 08:51:48;;;;;;;10.60;8.65;;;17.50;77.10;;;;;;5045805;28;20028;-70
2022/06/07 08:54:30;;;;;;;14.65;11.13;;;17.60;77.60;;;;;;5043001;28;20099;-69
2022/06/07 08:57:03;;;;;;;7.93;6.80;;;17.60;76.10;;;;;;5046407;28;20056;-70
2022/06/07 08:59:29;;;;;;;8.70;7.28;;;17.60;75.90;;;;;;5050837;28;20124;-69
2022/06/07 09:02:33;;;;;;;7.80;7.00;;;17.60;75.60;;;;;;5047152;28;20104;-70
2022/06/07 09:04:59;;;;;;;8.85;7.07;;;17.80;75.30;;;;;;5062908;28;20025;-69
2022/06/07 09:07:25;;;;;;;8.02;6.70;;;17.90;74.80;;;;;;5049175;28;20070;-69
2022/06/07 09:12:55;;;;;;;8.75;7.80;;;18.00;74.10;;;;;;5047506;28;20556;-69
2022/06/07 09:15:23;;;;;;;10.73;7.90;;;18.00;73.90;;;;;;5049868;28;20029;-70
2022/06/07 09:17:55;;;;;;;7.72;6.45;;;17.90;73.90;;;;;;5049947;28;20077;-69
2022/06/07 09:20:22;;;;;;;;;;;18.00;74.10;;;;;;5048234;28;20098;-69
2022/06/07 09:22:54;;;;;;;6.10;5.03;;;18.00;74.10;;;;;;5048064;28;20316;-69
2022/06/07 09:25:35;;;;;;;9.75;7.03;;;18.10;74.30;;;;;;5050179;28;20081;-69
2022/06/07 09:28:03;;;;;;;10.63;8.35;;;18.20;74.30;;;;;;5045356;28;20037;-69
2022/06/07 09:30:39;;;;;;;7.85;5.95;;;18.30;74.10;;;;;;5049395;28;20041;-69
2022/06/07 09:33:10;;;;;;;8.23;5.85;;;18.30;74.00;;;;;;5047342;28;20029;-69
2022/06/07 09:35:41;;;;;;;9.82;8.73;;;18.40;73.80;;;;;;5047715;28;20021;-71
2022/06/07 09:38:11;;;;;;;9.23;7.53;;;18.30;73.50;;;;;;5049928;28;20450;-69
2022/06/07 09:40:42;;;;;;;9.40;7.18;;;18.20;73.20;;;;;;5049820;28;20276;-69
2022/06/07 09:43:18;;;;;;;6.70;5.63;;;18.10;73.40;;;;;;5049635;28;20028;-69
2022/06/07 09:45:43;;;;;;;6.18;5.30;;;18.10;73.60;;;;;;5050417;28;20040;-69
2022/06/07 09:48:25;;;;;;;7.20;6.43;;;18.20;73.70;;;;;;5050075;28;20064;-70
2022/06/07 09:51:15;;;;;;;9.63;6.85;;;18.20;73.20;;;;;;5048517;28;20029;-69
2022/06/07 09:53:46;;;;;;;6.55;4.90;;;18.00;73.00;;;;;;5049685;28;20017;-70
2022/06/07 09:56:31;;;;;;;7.22;5.47;;;18.00;73.30;;;;;;5053277;28;20025;-69
2022/06/07 09:59:14;;;;;;;7.97;6.88;;;18.10;73.40;;;;;;5046263;28;20037;-67
2022/06/07 10:02:31;;;;;;;9.20;7.90;;;18.10;73.50;;;;;;5061579;28;20036;-69
2022/06/07 10:05:18;;;;;;;9.75;8.60;;;18.20;73.60;;;;;;5047577;28;20128;-69
2022/06/07 10:08:11;;;;;;;9.07;7.32;;;18.30;73.70;;;;;;5044429;28;20485;-70
2022/06/07 10:10:47;;;;;;;13.73;11.50;;;18.50;73.60;;;;;;5063597;28;20507;-68
2022/06/07 10:13:34;;;;;;;12.65;10.10;;;18.50;73.60;;;;;;5049438;28;20048;-69
2022/06/07 10:16:03;;;;;;;13.90;11.85;;;18.60;73.70;;;;;;5050430;28;20391;-69
2022/06/07 10:18:39;;;;;;;14.05;11.88;;;18.50;73.60;;;;;;5045357;28;20028;-70
2022/06/07 10:21:08;;;;;;;11.85;10.57;;;18.50;73.60;;;;;;5047024;28;20068;-69
2022/06/07 10:24:01;;;;;;;13.80;11.07;;;18.50;73.60;;;;;;5051040;28;20029;-69
2022/06/07 10:26:57;;;;;;;10.57;9.48;;;18.50;73.60;;;;;;5050639;28;20383;-69
2022/06/07 10:29:54;;;;;;;12.48;10.15;;;18.50;73.90;;;;;;5045757;28;20112;-70
2022/06/07 10:32:51;;;;;;;13.35;10.70;;;18.50;73.70;;;;;;5048668;28;20398;-69
2022/06/07 10:35:43;;;;;;;12.13;10.20;;;18.50;73.90;;;;;;5049355;28;20032;-70
2022/06/07 10:38:18;;;;;;;12.60;9.43;;;18.50;74.10;;;;;;5047838;28;20032;-70
2022/06/07 10:41:27;;;;;;;12.63;10.55;;;18.40;74.00;;;;;;5050362;28;20107;-69
2022/06/07 10:43:59;;;;;;;12.45;10.30;;;18.50;74.00;;;;;;5050374;28;20025;-70
2022/06/07 10:46:27;;;;;;;;;;;18.60;73.90;;;;;;5050703;28;20127;-70
2022/06/07 10:49:10;;;;;;;10.20;9.00;;;18.80;73.80;;;;;;5045563;28;19912;-70
2022/06/07 10:54:33;;;;;;;9.63;8.40;;;19.20;72.70;;;;;;5049286;28;20044;-70
2022/06/07 10:57:09;;;;;;;;;;;19.50;72.20;;;;;;5049167;28;20025;-70
2022/06/07 10:59:37;;;;;;;9.30;7.78;;;19.60;71.90;;;;;;5047663;28;20389;-70
2022/06/07 11:02:11;;;;;;;9.02;8.05;;;19.70;71.50;;;;;;5060413;28;20029;-70
2022/06/07 11:10:27;;;;;;;9.45;8.30;;;19.80;70.80;;;;;;5050239;28;20040;-69
2022/06/07 11:12:55;;;;;;;9.77;7.85;;;19.70;70.60;;;;;;5051322;28;20028;-70
2022/06/07 11:15:36;;;;;;;8.93;7.65;;;19.80;70.60;;;;;;5051631;28;20829;-69
2022/06/07 11:18:09;;;;;;;9.80;7.40;;;19.80;70.40;;;;;;5045814;28;20024;-69
2022/06/07 11:20:36;;;;;;;10.88;8.85;;;19.80;70.30;;;;;;5050277;28;20036;-69
2022/06/07 11:23:19;;;;;;;11.30;9.10;;;19.70;70.10;;;;;;5045438;28;20071;-69
2022/06/07 11:26:08;;;;;;;11.02;8.32;;;19.60;70.00;;;;;;5053211;28;20086;-70
2022/06/07 11:28:41;;;;;;;12.93;10.90;;;19.50;70.10;;;;;;5050513;28;20453;-70
2022/06/07 11:31:28;;;;;;;8.38;7.32;;;19.50;69.90;;;;;;5048589;28;20404;-70
2022/06/07 11:33:53;;;;;;;8.02;7.10;;;19.40;70.30;;;;;;5046046;28;20053;-69
2022/06/07 11:36:25;;;;;;;7.80;6.78;;;19.40;70.30;;;;;;5044673;28;20127;-69
2022/06/07 11:38:56;;;;;;;9.32;7.28;;;19.60;70.50;;;;;;5048423;28;20116;-69
2022/06/07 11:41:42;;;;;;;11.30;9.40;;;19.80;70.20;;;;;;5049128;28;20107;-69
2022/06/07 11:44:08;;;;;;;10.50;9.30;;;20.00;69.80;;;;;;5048732;28;20395;-69
2022/06/07 11:46:33;;;;;;;10.95;9.65;;;20.30;69.30;;;;;;5048222;28;20025;-70
2022/06/07 11:49:18;;;;;;;7.20;6.05;;;20.60;68.80;;;;;;5047746;28;20103;-69
2022/06/07 11:52:13;;;;;;;9.52;8.43;;;21.10;68.40;;;;;;5063525;28;20105;-69
2022/06/07 11:54:48;;;;;;;9.35;8.30;;;21.50;67.00;;;;;;5042211;28;20104;-69
2022/06/07 11:57:32;;;;;;;11.27;9.27;;;21.60;65.60;;;;;;5047800;28;20118;-69
2022/06/07 12:00:16;;;;;;;10.07;8.10;;;21.60;64.80;;;;;;5047259;28;20029;-69
2022/06/07 12:03:06;;;;;;;7.00;6.20;;;21.60;64.50;;;;;;5062446;28;20024;-69
2022/06/07 12:05:31;;;;;;;6.93;5.60;;;21.80;64.50;;;;;;5046935;28;20024;-69
2022/06/07 12:08:13;;;;;;;7.10;6.40;;;22.00;64.40;;;;;;5048587;28;20024;-68
2022/06/07 12:10:42;;;;;;;7.73;6.03;;;22.20;63.20;;;;;;5045925;28;20032;-68
2022/06/07 12:13:12;;;;;;;7.15;6.20;;;22.20;63.00;;;;;;5054678;28;20024;-68
2022/06/07 12:15:43;;;;;;;6.57;5.57;;;22.20;62.70;;;;;;5043843;28;20025;-68
2022/06/07 12:18:21;;;;;;;6.82;5.63;;;22.10;62.50;;;;;;5049220;28;20021;-68
2022/06/07 12:20:57;;;;;;;8.25;7.15;;;21.90;62.30;;;;;;5045166;28;20021;-68
2022/06/07 12:23:24;;;;;;;6.03;5.43;;;21.80;62.20;;;;;;5065114;28;20061;-68
2022/06/07 12:26:17;;;;;;;7.22;6.50;;;22.00;62.30;;;;;;5047192;28;20021;-65
2022/06/07 12:28:53;;;;;;;6.93;5.35;;;22.20;61.90;;;;;;5036183;28;20029;-65
2022/06/07 12:31:48;;;;;;;7.05;5.80;;;22.40;61.60;;;;;;5046419;28;20103;-66
2022/06/07 12:34:21;;;;;;;6.28;4.60;;;22.50;61.10;;;;;;5049772;28;20037;-68
2022/06/07 12:36:57;;;;;;;7.10;5.32;;;22.50;61.40;;;;;;5050555;28;20128;-68
2022/06/07 12:39:24;;;;;;;6.78;6.07;;;22.40;61.10;;;;;;5049522;28;20029;-70
2022/06/07 12:42:06;;;;;;;6.45;5.03;;;22.20;61.00;;;;;;5051983;28;20060;-69
2022/06/07 12:44:42;;;;;;;6.32;4.93;;;22.00;61.60;;;;;;5049391;28;20039;-69
2022/06/07 12:47:33;;;;;;;5.97;4.70;;;21.90;61.90;;;;;;5049186;28;20117;-69
2022/06/07 12:49:59;;;;;;;6.00;4.43;;;22.00;62.00;;;;;;5067432;28;20028;-68
2022/06/07 12:52:31;;;;;;;5.40;4.32;;;22.20;61.70;;;;;;5049723;28;20144;-69
2022/06/07 12:55:07;;;;;;;6.95;5.43;;;22.30;61.40;;;;;;5051459;28;20017;-68
2022/06/07 12:57:46;;;;;;;5.82;5.10;;;22.50;61.10;;;;;;5050615;28;20782;-68
2022/06/07 13:00:16;;;;;;;7.13;4.60;;;22.70;60.50;;;;;;5053007;28;20029;-68
2022/06/07 13:02:47;;;;;;;5.60;4.72;;;22.90;60.30;;;;;;5051653;28;20091;-68
2022/06/07 13:05:20;;;;;;;7.40;4.78;;;23.00;59.80;;;;;;5053876;28;20052;-69
2022/06/07 13:07:48;;;;;;;6.90;5.30;;;23.10;59.40;;;;;;5057154;28;20056;-69
2022/06/07 13:10:20;;;;;;;6.82;5.20;;;23.10;58.80;;;;;;5052657;28;20020;-69
2022/06/07 13:12:48;;;;;;;;;;;22.90;58.60;;;;;;5052265;28;20020;-69
2022/06/07 13:15:22;;;;;;;7.68;5.50;;;22.70;58.50;;;;;;5059696;28;19943;-69
2022/06/07 13:18:04;;;;;;;6.05;4.90;;;22.40;58.80;;;;;;5054978;28;20013;-69
2022/06/07 13:20:41;;;;;;;4.95;3.97;;;22.40;59.40;;;;;;5045168;28;20499;-69